createdAt,value
2018-10-02T00:00:52.848Z,0
2018-10-02T00:01:53.354Z,0
2018-10-02T00:02:54.141Z,0
2018-10-02T00:03:54.371Z,0
2018-10-02T00:04:55.161Z,0
2018-10-02T00:05:56.947Z,0
2018-10-02T00:06:57.732Z,0
2018-10-02T00:07:58.354Z,0
2018-10-02T00:08:59.136Z,0
2018-10-02T00:09:59.923Z,0
2018-10-02T00:11:00.018Z,0
2018-10-02T00:12:00.805Z,0
2018-10-02T00:13:01.619Z,0
2018-10-02T00:14:02.129Z,0
2018-10-02T00:15:03.197Z,0
2018-10-02T00:16:03.262Z,0
2018-10-02T00:17:04.770Z,0
2018-10-02T00:18:04.999Z,0
2018-10-02T00:19:06.066Z,0
2018-10-02T00:20:06.575Z,0
2018-10-02T00:21:07.809Z,0
2018-10-02T00:22:08.152Z,0
2018-10-02T00:23:07.943Z,0
2018-10-02T00:24:09.279Z,0
2018-10-02T00:25:09.787Z,0
2018-10-02T00:26:10.565Z,0
2018-10-02T00:27:12.178Z,0
2018-10-02T00:28:12.517Z,0
2018-10-02T00:29:13.573Z,0
2018-10-02T00:30:13.912Z,0
2018-10-02T00:31:14.782Z,0
2018-10-02T00:32:18.190Z,0
2018-10-02T00:33:17.146Z,0
2018-10-02T00:34:17.370Z,0
2018-10-02T00:35:17.876Z,0
2018-10-02T00:36:19.378Z,0
2018-10-02T00:37:20.723Z,0
2018-10-02T00:38:20.504Z,0
2018-10-02T00:39:22.130Z,0
2018-10-02T00:40:23.191Z,0
2018-10-02T00:41:23.415Z,0
2018-10-02T00:42:23.920Z,0
2018-10-02T00:43:24.705Z,0
2018-10-02T00:44:25.039Z,0
2018-10-02T00:45:25.826Z,0
2018-10-02T00:46:26.606Z,0
2018-10-02T00:47:28.218Z,0
2018-10-02T00:48:29.320Z,0
2018-10-02T00:49:29.544Z,0
2018-10-02T00:50:30.045Z,0
2018-10-02T00:51:31.000Z,0
2018-10-02T00:52:32.890Z,0
2018-10-02T00:53:34.062Z,0
2018-10-02T00:54:34.118Z,0
2018-10-02T00:55:34.175Z,0
2018-10-02T00:56:34.958Z,0
2018-10-02T00:57:36.178Z,0
2018-10-02T00:58:37.680Z,0
2018-10-02T00:59:38.741Z,0
2018-10-02T01:00:39.523Z,0
2018-10-02T01:01:40.073Z,0
2018-10-02T01:02:40.857Z,0
2018-10-02T01:03:42.190Z,0
2018-10-02T01:04:42.691Z,0
2018-10-02T01:05:44.304Z,0
2018-10-02T01:06:44.810Z,0
2018-10-02T01:07:46.145Z,0
2018-10-02T01:08:47.481Z,0
2018-10-02T01:09:47.817Z,0
2018-10-02T01:10:48.593Z,0
2018-10-02T01:11:48.378Z,0
2018-10-02T01:12:50.441Z,0
2018-10-02T01:13:50.782Z,0
2018-10-02T01:14:51.844Z,0
2018-10-02T01:15:52.455Z,0
2018-10-02T01:16:52.678Z,0
2018-10-02T01:17:54.292Z,0
2018-10-02T01:18:54.628Z,0
2018-10-02T01:19:55.856Z,0
2018-10-02T01:20:56.304Z,0
2018-10-02T01:21:57.387Z,0
2018-10-02T01:22:57.167Z,0
2018-10-02T01:23:57.948Z,0
2018-10-02T01:24:58.007Z,0
2018-10-02T01:25:58.508Z,0
2018-10-02T01:27:00.122Z,0
2018-10-02T01:28:00.733Z,0
2018-10-02T01:29:01.081Z,0
2018-10-02T01:30:02.420Z,0
2018-10-02T01:31:02.486Z,0
2018-10-02T01:32:03.272Z,0
2018-10-02T01:33:03.773Z,0
2018-10-02T01:34:05.275Z,0
2018-10-02T01:35:06.614Z,0
2018-10-02T01:36:07.674Z,0
2018-10-02T01:37:08.729Z,0
2018-10-02T01:38:09.517Z,0
2018-10-02T01:39:09.851Z,0
2018-10-02T01:40:10.355Z,0
2018-10-02T01:41:11.860Z,0
2018-10-02T01:42:12.090Z,0
2018-10-02T01:43:13.145Z,0
2018-10-02T01:44:13.651Z,0
2018-10-02T01:45:14.720Z,0
2018-10-02T01:46:15.383Z,0
2018-10-02T01:47:16.000Z,0
2018-10-02T01:48:17.062Z,0
2018-10-02T01:49:17.289Z,0
2018-10-02T01:50:19.072Z,0
2018-10-02T01:51:19.575Z,0
2018-10-02T01:52:20.809Z,0
2018-10-02T01:53:21.592Z,0
2018-10-02T01:54:23.407Z,0
2018-10-02T01:55:24.466Z,0
2018-10-02T01:56:25.525Z,0
2018-10-02T01:57:26.032Z,0
2018-10-02T01:58:27.257Z,0
2018-10-02T01:59:28.872Z,0
2018-10-02T02:00:29.210Z,0
2018-10-02T02:01:29.830Z,0
2018-10-02T02:02:31.168Z,0
2018-10-02T02:03:31.948Z,0
2018-10-02T02:04:33.005Z,0
2018-10-02T02:05:33.787Z,0
2018-10-02T02:06:34.347Z,0
2018-10-02T02:07:35.127Z,0
2018-10-02T02:08:35.630Z,0
2018-10-02T02:09:36.688Z,0
2018-10-02T02:10:37.188Z,0
2018-10-02T02:11:38.525Z,0
2018-10-02T02:12:38.202Z,0
2018-10-02T02:13:39.259Z,0
2018-10-02T02:14:40.038Z,0
2018-10-02T02:15:40.539Z,0
2018-10-02T02:16:41.876Z,0
2018-10-02T02:17:42.935Z,0
2018-10-02T02:18:43.989Z,0
2018-10-02T02:19:44.771Z,0
2018-10-02T02:20:45.830Z,0
2018-10-02T02:21:46.887Z,0
2018-10-02T02:22:47.688Z,0
2018-10-02T02:23:49.072Z,0
2018-10-02T02:24:49.701Z,0
2018-10-02T02:25:50.312Z,0
2018-10-02T02:26:50.092Z,0
2018-10-02T02:27:50.875Z,0
2018-10-02T02:28:51.654Z,0
2018-10-02T02:29:52.990Z,0
2018-10-02T02:30:53.774Z,0
2018-10-02T02:31:55.974Z,0
2018-10-02T02:32:56.069Z,0
2018-10-02T02:33:57.125Z,0
2018-10-02T02:34:58.464Z,0
2018-10-02T02:35:59.374Z,0
2018-10-02T02:36:59.155Z,0
2018-10-02T02:38:00.214Z,0
2018-10-02T02:39:01.272Z,0
2018-10-02T02:40:01.335Z,0
2018-10-02T02:41:02.118Z,0
2018-10-02T02:42:02.907Z,0
2018-10-02T02:43:04.266Z,0
2018-10-02T02:44:05.434Z,0
2018-10-02T02:45:06.049Z,0
2018-10-02T02:46:06.388Z,0
2018-10-02T02:47:06.718Z,0
2018-10-02T02:48:07.776Z,0
2018-10-02T02:49:08.834Z,0
2018-10-02T02:50:09.612Z,0
2018-10-02T02:51:10.671Z,0
2018-10-02T02:52:11.168Z,0
2018-10-02T02:53:12.747Z,0
2018-10-02T02:54:12.533Z,0
2018-10-02T02:55:13.882Z,0
2018-10-02T02:56:14.937Z,0
2018-10-02T02:57:16.107Z,0
2018-10-02T02:58:16.440Z,0
2018-10-02T02:59:17.779Z,0
2018-10-02T03:00:18.127Z,0
2018-10-02T03:01:19.029Z,0
2018-10-02T03:02:19.799Z,0
2018-10-02T03:03:21.303Z,0
2018-10-02T03:04:22.643Z,0
2018-10-02T03:05:23.148Z,0
2018-10-02T03:06:23.928Z,0
2018-10-02T03:07:24.269Z,0
2018-10-02T03:08:25.607Z,0
2018-10-02T03:09:26.501Z,0
2018-10-02T03:10:27.285Z,0
2018-10-02T03:11:29.185Z,0
2018-10-02T03:12:29.518Z,0
2018-10-02T03:13:30.759Z,0
2018-10-02T03:14:31.541Z,0
2018-10-02T03:15:33.436Z,0
2018-10-02T03:16:32.936Z,0
2018-10-02T03:17:34.549Z,0
2018-10-02T03:18:34.607Z,0
2018-10-02T03:19:35.394Z,0
2018-10-02T03:20:35.615Z,0
2018-10-02T03:21:37.824Z,0
2018-10-02T03:22:37.750Z,0
2018-10-02T03:23:38.571Z,0
2018-10-02T03:24:39.910Z,0
2018-10-02T03:25:40.242Z,0
2018-10-02T03:26:41.021Z,0
2018-10-02T03:27:42.476Z,0
2018-10-02T03:28:42.266Z,0
2018-10-02T03:29:43.612Z,0
2018-10-02T03:30:43.968Z,0
2018-10-02T03:31:45.134Z,0
2018-10-02T03:32:45.913Z,0
2018-10-02T03:33:47.256Z,0
2018-10-02T03:34:47.869Z,0
2018-10-02T03:35:47.933Z,0
2018-10-02T03:36:48.993Z,0
2018-10-02T03:37:49.932Z,0
2018-10-02T03:38:50.464Z,0
2018-10-02T03:39:50.800Z,0
2018-10-02T03:40:51.610Z,0
2018-10-02T03:41:52.671Z,0
2018-10-02T03:42:53.019Z,0
2018-10-02T03:43:54.809Z,0
2018-10-02T03:44:54.590Z,0
2018-10-02T03:45:55.931Z,0
2018-10-02T03:46:56.708Z,0
2018-10-02T03:47:57.767Z,0
2018-10-02T03:49:00.040Z,0
2018-10-02T03:49:59.326Z,0
2018-10-02T03:51:00.772Z,0
2018-10-02T03:52:01.404Z,0
2018-10-02T03:53:02.736Z,0
2018-10-02T03:54:02.992Z,0
2018-10-02T03:55:03.772Z,0
2018-10-02T03:56:05.390Z,0
2018-10-02T03:57:06.562Z,0
2018-10-02T03:58:07.176Z,0
2018-10-02T03:59:06.235Z,0
2018-10-02T04:00:07.572Z,0
2018-10-02T04:01:09.031Z,0
2018-10-02T04:02:09.366Z,0
2018-10-02T04:03:09.700Z,0
2018-10-02T04:04:10.288Z,0
2018-10-02T04:05:11.085Z,0
2018-10-02T04:06:12.164Z,0
2018-10-02T04:07:13.223Z,0
2018-10-02T04:08:14.115Z,0
2018-10-02T04:09:15.008Z,0
2018-10-02T04:10:15.343Z,0
2018-10-02T04:11:16.519Z,0
2018-10-02T04:12:17.130Z,0
2018-10-02T04:13:17.108Z,0
2018-10-02T04:14:03.277Z,0
2018-10-02T04:15:03.793Z,0
2018-10-02T04:16:05.133Z,0
2018-10-02T04:17:06.478Z,0
2018-10-02T04:18:07.540Z,0
2018-10-02T04:19:07.653Z,0
2018-10-02T04:20:08.777Z,0
2018-10-02T04:21:10.113Z,0
2018-10-02T04:22:11.180Z,0
2018-10-02T04:23:11.510Z,0
2018-10-02T04:24:11.572Z,0
2018-10-02T04:25:12.635Z,0
2018-10-02T04:26:13.414Z,0
2018-10-02T04:27:15.026Z,0
2018-10-02T04:28:17.052Z,0
2018-10-02T04:29:16.967Z,0
2018-10-02T04:30:18.020Z,0
2018-10-02T04:31:17.799Z,0
2018-10-02T04:32:18.312Z,0
2018-10-02T04:33:19.644Z,0
2018-10-02T04:34:21.130Z,0
2018-10-02T04:35:21.930Z,0
2018-10-02T04:36:23.265Z,0
2018-10-02T04:37:23.598Z,0
2018-10-02T04:38:24.378Z,0
2018-10-02T04:39:24.504Z,0
2018-10-02T04:40:26.026Z,0
2018-10-02T04:41:26.361Z,0
2018-10-02T04:42:27.528Z,0
2018-10-02T04:43:28.306Z,0
2018-10-02T04:44:28.807Z,0
2018-10-02T04:45:30.312Z,0
2018-10-02T04:46:30.814Z,0
2018-10-02T04:47:31.872Z,0
2018-10-02T04:48:32.660Z,0
2018-10-02T04:49:33.440Z,0
2018-10-02T04:50:34.498Z,0
2018-10-02T04:51:35.286Z,0
2018-10-02T04:52:36.342Z,0
2018-10-02T04:53:37.123Z,0
2018-10-02T04:54:37.900Z,0
2018-10-02T04:55:39.365Z,4
2018-10-02T04:56:39.593Z,0
2018-10-02T04:57:40.945Z,4
2018-10-02T04:58:41.727Z,4
2018-10-02T04:59:42.503Z,4
2018-10-02T05:00:43.007Z,8
2018-10-02T05:01:43.786Z,8
2018-10-02T05:02:45.128Z,8
2018-10-02T05:03:45.180Z,8
2018-10-02T05:04:45.960Z,8
2018-10-02T05:05:47.219Z,8
2018-10-02T05:06:47.719Z,12
2018-10-02T05:07:48.792Z,12
2018-10-02T05:08:50.127Z,16
2018-10-02T05:09:50.038Z,16
2018-10-02T05:10:50.375Z,16
2018-10-02T05:11:50.158Z,24
2018-10-02T05:12:51.218Z,24
2018-10-02T05:13:52.279Z,28
2018-10-02T05:14:53.623Z,32
2018-10-02T05:15:53.859Z,36
2018-10-02T05:16:53.923Z,40
2018-10-02T05:17:54.423Z,44
2018-10-02T05:18:55.482Z,48
2018-10-02T05:19:55.991Z,52
2018-10-02T05:20:56.776Z,52
2018-10-02T05:21:57.852Z,56
2018-10-02T05:22:58.630Z,56
2018-10-02T05:23:59.972Z,56
2018-10-02T05:25:00.755Z,56
2018-10-02T05:26:01.860Z,60
2018-10-02T05:27:03.008Z,52
2018-10-02T05:28:03.773Z,52
2018-10-02T05:29:04.843Z,56
2018-10-02T05:30:04.632Z,56
2018-10-02T05:31:06.136Z,56
2018-10-02T05:32:06.916Z,56
2018-10-02T05:33:07.421Z,60
2018-10-02T05:34:08.205Z,60
2018-10-02T05:35:10.443Z,72
2018-10-02T05:36:09.880Z,80
2018-10-02T05:37:11.221Z,84
2018-10-02T05:38:12.004Z,92
2018-10-02T05:39:12.513Z,112
2018-10-02T05:40:13.299Z,136
2018-10-02T05:41:14.925Z,156
2018-10-02T05:42:14.989Z,172
2018-10-02T05:43:15.219Z,192
2018-10-02T05:44:15.728Z,200
2018-10-02T05:45:16.975Z,192
2018-10-02T05:46:18.047Z,192
2018-10-02T05:47:19.108Z,184
2018-10-02T05:48:18.942Z,172
2018-10-02T05:49:21.282Z,188
2018-10-02T05:50:21.041Z,196
2018-10-02T05:51:22.402Z,212
2018-10-02T05:52:22.467Z,196
2018-10-02T05:53:23.629Z,196
2018-10-02T05:54:23.858Z,224
2018-10-02T05:55:24.718Z,248
2018-10-02T05:56:25.057Z,248
2018-10-02T05:57:26.404Z,240
2018-10-02T05:58:28.661Z,244
2018-10-02T05:59:27.922Z,260
2018-10-02T06:00:29.034Z,280
2018-10-02T06:01:29.820Z,256
2018-10-02T06:02:31.300Z,220
2018-10-02T06:03:31.916Z,220
2018-10-02T06:04:32.427Z,240
2018-10-02T06:05:33.848Z,256
2018-10-02T06:06:34.359Z,260
2018-10-02T06:07:34.865Z,284
2018-10-02T06:08:36.095Z,340
2018-10-02T06:09:37.577Z,368
2018-10-02T06:10:40.234Z,368
2018-10-02T06:11:40.089Z,384
2018-10-02T06:12:39.962Z,384
2018-10-02T06:13:41.234Z,364
2018-10-02T06:14:41.467Z,404
2018-10-02T06:15:42.256Z,420
2018-10-02T06:16:42.817Z,404
2018-10-02T06:17:43.159Z,400
2018-10-02T06:18:44.892Z,368
2018-10-02T06:19:45.385Z,308
2018-10-02T06:20:45.890Z,300
2018-10-02T06:21:47.019Z,308
2018-10-02T06:22:48.080Z,296
2018-10-02T06:23:49.594Z,300
2018-10-02T06:24:51.593Z,292
2018-10-02T06:25:52.234Z,304
2018-10-02T06:26:53.471Z,328
2018-10-02T06:27:54.533Z,352
2018-10-02T06:28:54.876Z,404
2018-10-02T06:29:55.384Z,428
2018-10-02T06:30:56.513Z,460
2018-10-02T06:31:57.148Z,472
2018-10-02T06:32:57.210Z,444
2018-10-02T06:33:58.275Z,448
2018-10-02T06:34:58.340Z,464
2018-10-02T06:35:59.686Z,508
2018-10-02T06:36:59.668Z,560
2018-10-02T06:38:02.425Z,568
2018-10-02T06:39:03.033Z,556
2018-10-02T06:40:02.917Z,588
2018-10-02T06:41:04.114Z,608
2018-10-02T06:42:03.909Z,588
2018-10-02T06:43:05.281Z,560
2018-10-02T06:44:06.375Z,488
2018-10-02T06:45:09.700Z,468
2018-10-02T06:46:09.583Z,532
2018-10-02T06:47:10.096Z,728
2018-10-02T06:48:11.116Z,980
2018-10-02T06:49:11.474Z,1200
2018-10-02T06:50:12.099Z,1152
2018-10-02T06:51:14.468Z,1180
2018-10-02T06:52:16.320Z,1248
2018-10-02T06:53:15.435Z,1188
2018-10-02T06:54:16.495Z,1364
2018-10-02T06:55:17.291Z,1280
2018-10-02T06:56:17.524Z,1156
2018-10-02T06:57:18.614Z,1052
2018-10-02T06:58:19.232Z,1020
2018-10-02T06:59:20.029Z,1208
2018-10-02T07:00:22.082Z,1140
2018-10-02T07:01:23.816Z,1040
2018-10-02T07:02:24.726Z,916
2018-10-02T07:03:24.226Z,880
2018-10-02T07:04:25.021Z,964
2018-10-02T07:05:26.087Z,1056
2018-10-02T07:06:26.339Z,908
2018-10-02T07:07:27.577Z,848
2018-10-02T07:08:30.189Z,932
2018-10-02T07:09:31.112Z,976
2018-10-02T07:10:31.907Z,1060
2018-10-02T07:11:32.974Z,1076
2018-10-02T07:12:34.953Z,1032
2018-10-02T07:13:35.263Z,948
2018-10-02T07:14:36.802Z,1020
2018-10-02T07:15:36.760Z,1136
2018-10-02T07:16:37.550Z,1160
2018-10-02T07:17:40.666Z,1384
2018-10-02T07:18:40.319Z,1580
2018-10-02T07:19:41.405Z,1572
2018-10-02T07:20:42.369Z,1336
2018-10-02T07:21:42.448Z,1100
2018-10-02T07:22:43.258Z,1044
2018-10-02T07:23:44.805Z,1056
2018-10-02T07:24:45.911Z,1148
2018-10-02T07:25:45.712Z,1308
2018-10-02T07:26:47.043Z,1380
2018-10-02T07:27:48.259Z,1340
2018-10-02T07:28:48.635Z,1564
2018-10-02T07:29:49.458Z,1660
2018-10-02T07:30:51.715Z,1760
2018-10-02T07:31:51.534Z,1796
2018-10-02T07:32:53.460Z,1752
2018-10-02T07:33:54.225Z,1712
2018-10-02T07:34:54.006Z,1664
2018-10-02T07:35:54.157Z,1604
2018-10-02T07:36:55.264Z,1952
2018-10-02T07:37:55.616Z,1904
2018-10-02T07:38:58.554Z,1748
2018-10-02T07:39:57.635Z,1940
2018-10-02T07:40:59.084Z,2032
2018-10-02T07:42:00.580Z,2088
2018-10-02T07:42:59.492Z,2344
2018-10-02T07:44:01.281Z,2524
2018-10-02T07:45:04.016Z,2320
2018-10-02T07:46:03.211Z,1952
2018-10-02T07:47:04.036Z,1720
2018-10-02T07:48:05.382Z,1872
2018-10-02T07:49:05.941Z,1880
2018-10-02T07:50:07.009Z,1720
2018-10-02T07:51:08.089Z,1916
2018-10-02T07:52:08.621Z,2136
2018-10-02T07:53:09.410Z,2308
2018-10-02T07:54:10.734Z,2724
2018-10-02T07:55:10.236Z,2968
2018-10-02T07:56:11.581Z,3036
2018-10-02T07:57:12.390Z,2880
2018-10-02T07:58:13.064Z,2956
2018-10-02T07:59:13.619Z,2416
2018-10-02T08:00:13.882Z,1912
2018-10-02T08:01:15.467Z,1716
2018-10-02T08:02:15.627Z,1724
2018-10-02T08:03:16.707Z,1920
2018-10-02T08:04:17.773Z,2080
2018-10-02T08:05:19.597Z,2144
2018-10-02T08:06:20.599Z,2152
2018-10-02T08:07:20.676Z,2052
2018-10-02T08:08:21.783Z,1848
2018-10-02T08:09:22.198Z,1776
2018-10-02T08:10:22.987Z,1640
2018-10-02T08:11:24.456Z,1472
2018-10-02T08:12:26.941Z,1292
2018-10-02T08:13:27.630Z,1248
2018-10-02T08:14:28.756Z,1312
2018-10-02T08:15:28.566Z,1516
2018-10-02T08:16:28.920Z,2100
2018-10-02T08:17:30.110Z,2648
2018-10-02T08:18:30.735Z,2760
2018-10-02T08:19:31.245Z,2600
2018-10-02T08:20:33.993Z,2252
2018-10-02T08:21:33.578Z,2268
2018-10-02T08:22:35.366Z,2112
2018-10-02T08:23:37.526Z,1868
2018-10-02T08:24:36.924Z,1768
2018-10-02T08:25:38.556Z,2088
2018-10-02T08:26:40.094Z,2500
2018-10-02T08:27:39.163Z,2628
2018-10-02T08:28:40.886Z,3164
2018-10-02T08:29:43.579Z,3388
2018-10-02T08:30:46.214Z,3408
2018-10-02T08:31:44.498Z,3976
2018-10-02T08:32:46.655Z,4944
2018-10-02T08:33:46.529Z,3660
2018-10-02T08:34:46.331Z,4392
2018-10-02T08:35:50.074Z,3516
2018-10-02T08:36:48.931Z,4440
2018-10-02T08:37:49.446Z,4980
2018-10-02T08:38:51.421Z,7052
2018-10-02T08:39:51.267Z,3248
2018-10-02T08:40:52.889Z,3188
2018-10-02T08:41:54.155Z,3596
2018-10-02T08:42:54.005Z,4588
2018-10-02T08:43:57.045Z,21216
2018-10-02T08:44:57.083Z,3940
2018-10-02T08:45:57.813Z,4272
2018-10-02T08:46:58.062Z,4432
2018-10-02T08:48:00.111Z,4696
2018-10-02T08:48:59.371Z,8076
2018-10-02T08:50:00.557Z,4100
2018-10-02T08:51:07.592Z,4340
2018-10-02T08:51:17.952Z,5232
2018-10-02T08:51:28.364Z,9944
2018-10-02T08:52:26.103Z,3544
2018-10-02T08:53:28.162Z,4340
2018-10-02T08:54:28.527Z,4496
2018-10-02T08:55:28.320Z,4516
2018-10-02T08:56:30.109Z,5976
2018-10-02T08:57:30.901Z,5800
2018-10-02T08:58:31.594Z,4760
2018-10-02T08:59:32.089Z,4916
2018-10-02T09:00:33.579Z,5696
2018-10-02T09:01:33.964Z,4296
2018-10-02T09:02:34.260Z,4140
2018-10-02T09:03:34.774Z,3544
2018-10-02T09:04:35.846Z,3012
2018-10-02T09:05:36.544Z,3500
2018-10-02T09:06:39.064Z,3132
2018-10-02T09:07:38.800Z,2608
2018-10-02T09:08:39.872Z,2576
2018-10-02T09:09:40.665Z,2472
2018-10-02T09:10:41.454Z,2108
2018-10-02T09:11:42.031Z,2052
2018-10-02T09:12:44.441Z,1980
2018-10-02T09:13:44.953Z,2008
2018-10-02T09:14:44.894Z,2140
2018-10-02T09:15:47.328Z,2372
2018-10-02T09:16:48.410Z,2228
2018-10-02T09:17:47.820Z,2332
2018-10-02T09:18:49.048Z,3252
2018-10-02T09:19:49.551Z,3680
2018-10-02T09:20:51.498Z,3860
2018-10-02T09:21:51.503Z,4656
2018-10-02T09:22:51.933Z,5640
2018-10-02T09:23:52.836Z,5260
2018-10-02T09:24:54.639Z,4896
2018-10-02T09:25:54.836Z,4312
2018-10-02T09:26:54.635Z,3704
2018-10-02T09:27:57.813Z,3804
2018-10-02T09:28:56.719Z,3660
2018-10-02T09:29:57.228Z,3404
2018-10-02T09:31:00.804Z,3128
2018-10-02T09:32:00.628Z,6556
2018-10-02T09:33:01.147Z,5624
2018-10-02T09:34:02.749Z,6020
2018-10-02T09:35:02.572Z,8296
2018-10-02T09:36:03.924Z,4608
2018-10-02T09:37:04.986Z,5920
2018-10-02T09:38:06.288Z,3972
2018-10-02T09:39:07.352Z,3736
2018-10-02T09:40:08.927Z,3544
2018-10-02T09:41:09.315Z,3056
2018-10-02T09:42:09.107Z,3220
2018-10-02T09:43:10.342Z,3700
2018-10-02T09:44:10.412Z,6944
2018-10-02T09:45:11.227Z,4860
2018-10-02T09:46:12.021Z,3440
2018-10-02T09:47:12.813Z,3532
2018-10-02T09:48:13.601Z,3252
2018-10-02T09:49:14.739Z,2592
2018-10-02T09:50:15.530Z,2332
2018-10-02T09:51:16.330Z,3448
2018-10-02T09:52:17.420Z,37536
2018-10-02T09:53:17.938Z,2428
2018-10-02T09:54:19.289Z,2136
2018-10-02T09:55:19.914Z,2532
2018-10-02T09:56:21.384Z,1864
2018-10-02T09:57:22.175Z,2108
2018-10-02T09:58:24.266Z,2696
2018-10-02T09:59:23.736Z,22880
2018-10-02T10:00:25.899Z,46656
2018-10-02T10:01:26.090Z,7404
2018-10-02T10:02:28.218Z,26464
2018-10-02T10:03:29.916Z,35104
2018-10-02T10:04:29.250Z,6132
2018-10-02T10:05:31.532Z,7592
2018-10-02T10:06:31.384Z,6256
2018-10-02T10:07:32.494Z,7828
2018-10-02T10:08:33.011Z,3468
2018-10-02T10:09:34.812Z,3672
2018-10-02T10:10:37.082Z,14996
2018-10-02T10:11:37.317Z,4060
2018-10-02T10:12:39.317Z,5952
2018-10-02T10:13:40.776Z,25824
2018-10-02T10:14:40.114Z,5092
2018-10-02T10:15:40.996Z,22112
2018-10-02T10:16:43.597Z,13568
2018-10-02T10:17:42.881Z,20768
2018-10-02T10:18:43.676Z,14304
2018-10-02T10:19:48.058Z,3720
2018-10-02T10:20:47.237Z,9556
2018-10-02T10:21:48.033Z,41792
2018-10-02T10:22:49.907Z,41312
2018-10-02T10:23:50.086Z,6532
2018-10-02T10:24:50.334Z,14896
2018-10-02T10:25:52.242Z,5156
2018-10-02T10:26:52.598Z,18080
2018-10-02T10:27:52.394Z,5972
2018-10-02T10:28:54.051Z,37376
2018-10-02T10:29:53.615Z,37184
2018-10-02T10:30:54.419Z,35872
2018-10-02T10:31:54.665Z,37952
2018-10-02T10:32:55.465Z,38624
2018-10-02T10:33:55.928Z,38912
2018-10-02T10:34:58.205Z,16448
2018-10-02T10:35:59.188Z,37984
2018-10-02T10:36:58.426Z,7108
2018-10-02T10:37:59.567Z,6048
2018-10-02T10:38:59.819Z,2736
2018-10-02T10:40:02.228Z,2208
2018-10-02T10:41:03.514Z,1872
2018-10-02T10:42:02.740Z,2756
2018-10-02T10:43:03.256Z,2684
2018-10-02T10:44:05.062Z,29056
2018-10-02T10:45:05.618Z,20384
2018-10-02T10:46:07.292Z,19424
2018-10-02T10:47:08.110Z,19040
2018-10-02T10:48:09.187Z,12812
2018-10-02T10:49:10.045Z,11768
2018-10-02T10:50:10.262Z,8904
2018-10-02T10:51:12.649Z,6784
2018-10-02T10:52:12.187Z,12316
2018-10-02T10:53:13.263Z,3840
2018-10-02T10:54:14.236Z,5708
2018-10-02T10:55:15.539Z,4676
2018-10-02T10:56:17.423Z,10968
2018-10-02T10:57:17.300Z,16320
2018-10-02T10:58:18.476Z,15264
2018-10-02T10:59:19.752Z,12008
2018-10-02T11:00:20.350Z,7568
2018-10-02T11:01:20.983Z,3388
2018-10-02T11:02:22.662Z,11024
2018-10-02T11:03:23.528Z,2956
2018-10-02T11:04:24.610Z,14528
2018-10-02T11:05:24.841Z,7572
2018-10-02T11:06:25.916Z,13640
2018-10-02T11:07:26.158Z,7580
2018-10-02T11:08:27.580Z,2524
2018-10-02T11:09:29.904Z,2576
2018-10-02T11:10:30.358Z,2388
2018-10-02T11:11:30.293Z,2400
2018-10-02T11:14:16.212Z,8296
2018-10-02T11:15:17.297Z,11152
2018-10-02T11:16:16.729Z,7672
2018-10-02T11:17:16.800Z,5232
2018-10-02T11:18:17.037Z,5080
2018-10-02T11:19:18.112Z,5348
2018-10-02T11:20:19.183Z,5088
2018-10-02T11:21:19.982Z,4908
2018-10-02T11:22:21.057Z,4604
2018-10-02T11:23:22.133Z,5840
2018-10-02T11:24:22.700Z,5228
2018-10-02T11:25:25.543Z,5316
2018-10-02T11:26:25.006Z,6548
2018-10-02T11:27:25.076Z,5928
2018-10-02T11:28:26.151Z,6460
2018-10-02T11:29:27.227Z,5804
2018-10-02T11:30:28.299Z,4996
2018-10-02T11:31:30.079Z,5288
2018-10-02T11:32:30.549Z,4716
2018-10-02T11:33:32.026Z,4200
2018-10-02T11:34:31.727Z,3992
2018-10-02T11:35:33.449Z,4184
2018-10-02T11:36:33.572Z,4036
2018-10-02T11:37:34.452Z,4272
2018-10-02T11:38:35.805Z,4348
2018-10-02T11:39:35.885Z,4256
2018-10-02T11:40:36.403Z,4048
2018-10-02T11:41:37.213Z,3868
2018-10-02T11:42:38.001Z,3648
2018-10-02T11:43:40.311Z,3636
2018-10-02T11:44:40.503Z,3820
2018-10-02T11:45:40.796Z,3532
2018-10-02T11:46:41.595Z,3772
2018-10-02T11:47:42.392Z,3824
2018-10-02T11:48:43.188Z,3980
2018-10-02T11:49:45.232Z,3748
2018-10-02T11:50:45.466Z,4052
2018-10-02T11:51:46.609Z,4476
2018-10-02T11:52:47.959Z,2536
2018-10-02T11:53:48.754Z,5132
2018-10-02T11:54:50.057Z,5028
2018-10-02T11:55:50.885Z,6364
2018-10-02T11:56:51.012Z,6556
2018-10-02T11:57:50.810Z,6288
2018-10-02T11:58:51.888Z,6340
2018-10-02T11:59:52.409Z,6604
2018-10-02T12:00:53.995Z,6568
2018-10-02T12:01:53.579Z,6656
2018-10-02T12:02:54.933Z,6516
2018-10-02T12:03:55.734Z,6216
2018-10-02T12:04:56.416Z,6244
2018-10-02T12:05:57.528Z,6416
2018-10-02T12:06:58.910Z,6020
2018-10-02T12:07:59.987Z,5576
2018-10-02T12:09:00.829Z,5664
2018-10-02T12:10:01.180Z,5668
2018-10-02T12:11:01.481Z,6048
2018-10-02T12:12:02.617Z,6392
2018-10-02T12:13:04.027Z,6540
2018-10-02T12:14:05.700Z,6612
2018-10-02T12:15:06.562Z,6636
2018-10-02T12:16:07.834Z,6784
2018-10-02T12:17:07.904Z,6832
2018-10-02T12:18:08.257Z,7000
2018-10-02T12:19:09.335Z,6960
2018-10-02T12:20:10.430Z,6120
2018-10-02T12:21:11.007Z,6852
2018-10-02T12:22:11.528Z,7064
2018-10-02T12:23:12.323Z,6548
2018-10-02T12:24:13.407Z,6556
2018-10-02T12:25:13.713Z,6236
2018-10-02T12:26:14.753Z,6288
2018-10-02T12:27:15.739Z,6024
2018-10-02T12:28:17.220Z,6260
2018-10-02T12:29:18.445Z,6236
2018-10-02T12:30:18.243Z,6500
2018-10-02T12:31:20.033Z,6476
2018-10-02T12:32:20.328Z,6656
2018-10-02T12:33:21.965Z,6848
2018-10-02T12:34:21.765Z,6856
2018-10-02T12:35:22.011Z,6708
2018-10-02T12:36:23.652Z,6652
2018-10-02T12:37:24.453Z,6488
2018-10-02T12:38:25.899Z,6620
2018-10-02T12:39:27.205Z,6976
2018-10-02T12:40:27.620Z,7196
2018-10-02T12:41:29.414Z,7012
2018-10-02T12:42:29.934Z,6664
2018-10-02T12:43:31.008Z,6300
2018-10-02T12:44:31.803Z,6028
2018-10-02T12:45:32.220Z,6736
2018-10-02T12:46:33.296Z,7292
2018-10-02T12:47:34.372Z,7120
2018-10-02T12:48:34.455Z,7008
2018-10-02T12:49:35.024Z,7236
2018-10-02T12:50:37.663Z,5808
2018-10-02T12:51:36.745Z,6016
2018-10-02T12:52:39.595Z,5540
2018-10-02T12:53:39.088Z,5080
2018-10-02T12:54:39.605Z,5436
2018-10-02T12:55:40.288Z,4008
2018-10-02T12:56:41.363Z,5000
2018-10-02T12:57:42.278Z,4936
2018-10-02T12:58:42.896Z,5548
2018-10-02T12:59:43.417Z,3956
2018-10-02T13:00:45.773Z,5996
2018-10-02T13:01:45.569Z,5380
2018-10-02T13:02:46.089Z,4988
2018-10-02T13:03:47.170Z,3932
2018-10-02T13:04:47.969Z,3460
2018-10-02T13:05:51.146Z,3540
2018-10-02T13:06:51.709Z,3468
2018-10-02T13:07:52.105Z,3100
2018-10-02T13:08:51.904Z,3116
2018-10-02T13:09:54.211Z,3436
2018-10-02T13:10:54.191Z,3644
2018-10-02T13:11:55.568Z,3900
2018-10-02T13:12:55.389Z,4096
2018-10-02T13:13:57.346Z,4204
2018-10-02T13:14:58.165Z,4532
2018-10-02T13:15:58.018Z,4240
2018-10-02T13:16:58.538Z,4196
2018-10-02T13:17:59.339Z,4008
2018-10-02T13:19:00.135Z,4032
2018-10-02T13:20:02.703Z,4124
2018-10-02T13:21:02.263Z,4076
2018-10-02T13:22:03.335Z,3916
2018-10-02T13:23:04.865Z,3900
2018-10-02T13:24:06.032Z,3864
2018-10-02T13:25:06.152Z,3692
2018-10-02T13:26:07.021Z,3404
2018-10-02T13:27:07.816Z,3252
2018-10-02T13:28:08.915Z,3124
2018-10-02T13:29:09.428Z,3028
2018-10-02T13:30:10.779Z,2892
2018-10-02T13:31:12.706Z,2776
2018-10-02T13:32:13.717Z,2712
2018-10-02T13:33:13.690Z,2720
2018-10-02T13:34:15.753Z,2760
2018-10-02T13:35:16.363Z,2780
2018-10-02T13:36:17.172Z,2832
2018-10-02T13:37:18.267Z,2884
2018-10-02T13:38:19.862Z,2968
2018-10-02T13:39:20.653Z,2992
2018-10-02T13:40:21.874Z,2968
2018-10-02T13:41:21.448Z,3068
2018-10-02T13:42:23.124Z,3420
2018-10-02T13:43:23.915Z,3584
2018-10-02T13:44:25.046Z,3460
2018-10-02T13:45:24.835Z,3408
2018-10-02T13:46:26.633Z,3260
2018-10-02T13:47:30.786Z,2988
2018-10-02T13:47:39.153Z,2956
2018-10-02T13:48:40.974Z,2808
2018-10-02T13:49:41.331Z,2692
2018-10-02T13:50:42.769Z,2500
2018-10-02T13:51:42.497Z,2324
2018-10-02T13:52:43.304Z,2188
2018-10-02T13:53:44.830Z,2140
2018-10-02T13:54:45.454Z,2120
2018-10-02T13:55:45.970Z,2044
2018-10-02T13:56:46.486Z,1944
2018-10-02T13:57:48.329Z,1864
2018-10-02T13:58:48.972Z,1816
2018-10-02T13:59:49.076Z,1776
2018-10-02T14:00:50.789Z,1728
2018-10-02T14:01:51.577Z,1716
2018-10-02T14:02:52.655Z,1716
2018-10-02T14:03:52.724Z,1716